Time;durP1;ratioP1;P1;durP2;ratioP2;P2;SDS_P1;SDS_P2;PMS_P1;PMS_P2;Temp;Humidity;BMP_temperature;BMP_pressure;BME280_temperature;BME280_humidity;BME280_pressure;Samples;Min_cycle;Max_cycle;Signal;HPM_P1;HPM_P2
2022/07/19 00:02:15;;;;;;;5.25;2.22;;;26.50;48.60;;;;;;4970293;28;20074;-56
2022/07/19 00:04:42;;;;;;;5.60;1.60;;;26.50;48.60;;;;;;4970368;28;20054;-56
2022/07/19 00:07:09;;;;;;;2.90;1.75;;;26.40;48.60;;;;;;4970945;28;20055;-54
2022/07/19 00:09:36;;;;;;;4.55;1.83;;;26.40;48.80;;;;;;4970547;28;20051;-55
2022/07/19 00:12:03;;;;;;;4.38;2.05;;;26.40;48.70;;;;;;4970256;28;20043;-55
2022/07/19 00:14:29;;;;;;;4.88;1.40;;;26.30;48.70;;;;;;4970113;28;20117;-54
2022/07/19 00:16:57;;;;;;;5.07;2.40;;;26.40;48.60;;;;;;4967835;28;20046;-52
2022/07/19 00:19:24;;;;;;;6.85;1.38;;;26.30;48.70;;;;;;4970509;28;20042;-55
2022/07/19 00:21:50;;;;;;;2.72;1.30;;;26.30;48.50;;;;;;4970554;28;20471;-55
2022/07/19 00:24:17;;;;;;;2.72;1.30;;;26.30;48.80;;;;;;4969768;28;20447;-54
2022/07/19 00:26:44;;;;;;;4.28;1.33;;;26.20;48.70;;;;;;4970020;28;20568;-53
2022/07/19 00:29:11;;;;;;;2.38;1.50;;;26.10;48.70;;;;;;4969621;28;20078;-52
2022/07/19 00:31:38;;;;;;;6.55;1.58;;;26.10;48.80;;;;;;4970381;28;20120;-53
2022/07/19 00:34:05;;;;;;;3.80;1.45;;;26.10;48.60;;;;;;4970328;28;20047;-54
2022/07/19 00:36:32;;;;;;;6.53;1.90;;;26.10;48.60;;;;;;4969647;28;20101;-55
2022/07/19 00:38:59;;;;;;;5.47;2.20;;;26.10;48.70;;;;;;4970408;28;20050;-50
2022/07/19 00:41:26;;;;;;;2.55;1.63;;;26.10;48.80;;;;;;4968606;28;20086;-56
2022/07/19 00:43:53;;;;;;;4.20;1.88;;;26.10;48.90;;;;;;4970026;28;20058;-54
2022/07/19 00:46:21;;;;;;;5.20;1.60;;;26.00;48.90;;;;;;4969558;28;20065;-53
2022/07/19 00:48:48;;;;;;;1.95;1.48;;;26.00;48.90;;;;;;4963364;28;20481;-54
2022/07/19 00:51:16;;;;;;;5.90;1.88;;;26.00;49.20;;;;;;4970103;28;20109;-52
2022/07/19 00:53:42;;;;;;;4.53;1.90;;;25.90;49.10;;;;;;4968800;28;20075;-52
2022/07/19 00:56:10;;;;;;;4.22;1.95;;;25.90;49.30;;;;;;4970492;28;20050;-60
2022/07/19 00:58:37;;;;;;;4.53;1.60;;;25.90;49.30;;;;;;4970369;28;20043;-50
2022/07/19 01:01:05;;;;;;;8.25;2.08;;;25.90;49.50;;;;;;4970803;28;20502;-53
2022/07/19 01:03:38;;;;;;;4.13;1.80;;;25.90;49.60;;;;;;4969249;28;20419;-54
2022/07/19 01:06:05;;;;;;;4.20;1.75;;;25.90;50.20;;;;;;4970699;28;20478;-55
2022/07/19 01:08:32;;;;;;;3.58;1.73;;;25.80;49.70;;;;;;4969894;28;20038;-55
2022/07/19 01:10:59;;;;;;;4.90;1.92;;;25.80;49.80;;;;;;4969347;28;20089;-53
2022/07/19 01:13:26;;;;;;;3.72;1.77;;;25.70;50.00;;;;;;4968598;28;20094;-55
2022/07/19 01:15:53;;;;;;;10.02;2.47;;;25.70;50.20;;;;;;4963802;28;20253;-50
2022/07/19 01:18:19;;;;;;;6.40;2.25;;;25.60;50.10;;;;;;4969740;28;20467;-55
2022/07/19 01:20:46;;;;;;;3.05;2.00;;;25.60;50.30;;;;;;4970016;28;20055;-55
2022/07/19 01:23:13;;;;;;;7.13;2.65;;;25.60;50.40;;;;;;4970146;28;20082;-51
2022/07/19 01:25:40;;;;;;;6.25;2.00;;;25.60;50.40;;;;;;4969775;28;20046;-53
2022/07/19 01:28:07;;;;;;;3.92;1.55;;;25.60;50.40;;;;;;4969489;28;20050;-55
2022/07/19 01:30:34;;;;;;;8.60;2.72;;;25.60;50.40;;;;;;4968524;28;20054;-52
2022/07/19 01:33:01;;;;;;;6.00;2.00;;;25.60;50.50;;;;;;4969515;28;20078;-54
2022/07/19 01:35:29;;;;;;;3.38;1.85;;;25.60;50.70;;;;;;4969521;28;20050;-56
2022/07/19 01:37:56;;;;;;;4.45;1.88;;;25.60;50.70;;;;;;4970037;28;20051;-53
2022/07/19 01:40:23;;;;;;;3.15;1.50;;;25.70;50.70;;;;;;4969491;28;20659;-53
2022/07/19 01:42:50;;;;;;;4.80;2.25;;;25.70;50.60;;;;;;4969634;28;20269;-53
2022/07/19 01:45:17;;;;;;;2.30;1.50;;;25.70;50.80;;;;;;4968841;28;20458;-55
2022/07/19 01:47:44;;;;;;;7.50;1.73;;;25.70;50.70;;;;;;4959517;28;20050;-55
2022/07/19 01:50:14;;;;;;;4.32;1.83;;;25.60;50.90;;;;;;4966457;28;20413;-53
2022/07/19 01:52:41;;;;;;;3.75;1.83;;;25.60;51.10;;;;;;4968885;28;20955;-54
2022/07/19 01:55:14;;;;;;;7.70;1.70;;;25.50;50.90;;;;;;4970678;28;20195;-60
2022/07/19 01:57:41;;;;;;;3.88;1.67;;;25.60;51.50;;;;;;4968640;28;20089;-54
2022/07/19 02:00:08;;;;;;;7.15;1.85;;;25.60;50.90;;;;;;4968761;28;20117;-55
2022/07/19 02:02:35;;;;;;;7.88;2.10;;;25.60;50.90;;;;;;4968675;28;20035;-56
2022/07/19 02:05:03;;;;;;;3.13;1.73;;;25.60;50.70;;;;;;4970582;28;20134;-59
2022/07/19 02:07:32;;;;;;;4.13;1.70;;;25.60;50.80;;;;;;4969666;28;20520;-62
2022/07/19 02:09:59;;;;;;;3.97;1.90;;;25.60;51.00;;;;;;4970527;28;20082;-57
2022/07/19 02:12:26;;;;;;;4.85;2.10;;;25.60;51.10;;;;;;4970880;28;20219;-62
2022/07/19 02:14:53;;;;;;;4.88;1.92;;;25.60;51.10;;;;;;4967945;28;20109;-55
2022/07/19 02:17:20;;;;;;;2.53;1.98;;;25.60;51.30;;;;;;4969795;28;20051;-55
2022/07/19 02:19:47;;;;;;;7.70;2.22;;;25.50;51.30;;;;;;4968554;28;20047;-51
2022/07/19 02:22:14;;;;;;;2.92;1.80;;;25.50;51.30;;;;;;4971122;28;20074;-55
2022/07/19 02:24:42;;;;;;;4.90;1.85;;;25.40;51.50;;;;;;4971247;28;20058;-52
2022/07/19 02:27:10;;;;;;;5.95;2.38;;;25.40;51.70;;;;;;4969582;28;20046;-55
2022/07/19 02:29:37;;;;;;;6.95;2.30;;;25.30;51.80;;;;;;4970626;28;20043;-57
2022/07/19 02:32:04;;;;;;;3.97;1.67;;;25.30;51.80;;;;;;4970792;28;20109;-55
2022/07/19 02:34:31;;;;;;;4.20;1.95;;;25.30;51.80;;;;;;4970165;28;20066;-55
2022/07/19 02:36:58;;;;;;;5.93;2.13;;;25.20;52.00;;;;;;4969817;28;20047;-58
2022/07/19 02:39:25;;;;;;;5.93;2.10;;;25.20;52.00;;;;;;4970562;28;20491;-55
2022/07/19 02:41:51;;;;;;;3.53;2.10;;;25.20;52.00;;;;;;4969428;28;20105;-54
2022/07/19 02:44:18;;;;;;;6.65;2.03;;;25.20;52.00;;;;;;4966954;28;20046;-54
2022/07/19 02:46:45;;;;;;;5.45;2.10;;;25.20;52.10;;;;;;4968922;28;20047;-55
2022/07/19 02:49:12;;;;;;;7.85;2.00;;;25.20;52.10;;;;;;4969331;28;20059;-53
2022/07/19 02:51:39;;;;;;;4.68;1.77;;;25.20;52.10;;;;;;4970118;28;20046;-54
2022/07/19 02:54:05;;;;;;;6.43;2.00;;;25.20;52.10;;;;;;4972594;28;20458;-55
2022/07/19 02:56:32;;;;;;;7.60;3.17;;;25.20;52.10;;;;;;4974601;28;20414;-53
2022/07/19 02:58:59;;;;;;;7.65;1.83;;;25.20;52.30;;;;;;4975170;28;20055;-55
2022/07/19 03:01:26;;;;;;;6.90;1.83;;;25.20;52.40;;;;;;4972612;28;20117;-54
2022/07/19 03:03:53;;;;;;;3.22;1.83;;;25.20;52.50;;;;;;4972954;28;20050;-57
2022/07/19 03:06:20;;;;;;;9.13;1.88;;;25.10;52.50;;;;;;4975171;28;20050;-58
2022/07/19 03:08:47;;;;;;;4.32;1.40;;;25.10;52.60;;;;;;4973703;28;20097;-55
2022/07/19 03:11:14;;;;;;;4.07;1.60;;;25.10;52.70;;;;;;4972009;28;20154;-55
2022/07/19 03:13:41;;;;;;;8.82;2.50;;;25.10;52.70;;;;;;4970523;28;20062;-56
2022/07/19 03:16:08;;;;;;;7.10;2.00;;;25.00;53.00;;;;;;4971869;28;20061;-55
2022/07/19 03:18:35;;;;;;;6.55;1.98;;;25.00;53.10;;;;;;4971480;28;20129;-55
2022/07/19 03:21:05;;;;;;;5.15;1.90;;;25.00;53.40;;;;;;4971732;28;20055;-55
2022/07/19 03:23:36;;;;;;;4.22;2.17;;;24.90;53.70;;;;;;4969145;28;20130;-55
2022/07/19 03:26:04;;;;;;;8.75;2.17;;;24.90;53.80;;;;;;4971174;28;20039;-54
2022/07/19 03:28:31;;;;;;;6.18;1.70;;;24.80;54.00;;;;;;4971277;28;20219;-55
2022/07/19 03:30:58;;;;;;;3.10;1.85;;;24.80;54.10;;;;;;4971654;28;20046;-54
2022/07/19 03:33:25;;;;;;;6.88;2.00;;;24.80;54.00;;;;;;4971165;28;20076;-52
2022/07/19 03:35:52;;;;;;;4.13;2.13;;;24.70;54.20;;;;;;4967712;28;20094;-54
2022/07/19 03:38:19;;;;;;;4.47;2.55;;;24.80;54.40;;;;;;4971640;28;20101;-52
2022/07/19 03:40:49;;;;;;;3.63;1.77;;;24.70;54.30;;;;;;4971114;28;20074;-53
2022/07/19 03:43:16;;;;;;;6.03;2.13;;;24.70;54.20;;;;;;4971251;28;20395;-55
2022/07/19 03:45:43;;;;;;;5.35;1.90;;;24.80;54.30;;;;;;4968584;28;20109;-54
2022/07/19 03:48:10;;;;;;;9.38;2.47;;;24.80;54.30;;;;;;4971323;28;20577;-55
2022/07/19 03:50:38;;;;;;;8.10;1.73;;;24.80;54.10;;;;;;4971355;28;20039;-54
2022/07/19 03:53:05;;;;;;;5.00;2.22;;;24.80;54.00;;;;;;4971131;28;20054;-55
2022/07/19 03:55:32;;;;;;;3.72;2.00;;;24.80;54.20;;;;;;4970457;28;20043;-52
2022/07/19 03:57:58;;;;;;;3.30;1.60;;;24.80;54.10;;;;;;4971192;28;20105;-53
2022/07/19 04:00:25;;;;;;;4.80;2.22;;;24.70;54.00;;;;;;4970990;28;20066;-54
2022/07/19 04:02:52;;;;;;;3.15;1.98;;;24.80;54.00;;;;;;4968813;28;20055;-58
2022/07/19 04:05:19;;;;;;;7.75;2.05;;;24.70;54.00;;;;;;4968357;28;20082;-54
2022/07/19 04:07:46;;;;;;;8.15;2.08;;;24.70;53.80;;;;;;4970905;28;20046;-54
2022/07/19 04:10:13;;;;;;;6.05;2.08;;;24.70;54.00;;;;;;4968925;28;20421;-54
2022/07/19 04:12:40;;;;;;;5.65;1.80;;;24.70;53.90;;;;;;4970248;28;20533;-51
2022/07/19 04:15:07;;;;;;;5.28;1.90;;;24.70;53.90;;;;;;4967671;28;20316;-53
2022/07/19 04:17:34;;;;;;;6.97;1.83;;;24.70;53.90;;;;;;4970535;28;20078;-53
2022/07/19 04:20:01;;;;;;;5.30;2.22;;;24.70;53.90;;;;;;4970499;28;20054;-55
2022/07/19 04:22:28;;;;;;;10.90;1.90;;;24.70;53.80;;;;;;4970676;28;20478;-54
2022/07/19 04:24:54;;;;;;;5.13;1.92;;;24.70;53.80;;;;;;4970321;28;20109;-51
2022/07/19 04:27:21;;;;;;;7.70;2.10;;;24.70;53.80;;;;;;4970619;28;20082;-54
2022/07/19 04:29:48;;;;;;;6.55;2.13;;;24.80;53.80;;;;;;4970576;28;20495;-53
2022/07/19 04:32:15;;;;;;;8.20;2.03;;;24.80;53.90;;;;;;4970391;28;20058;-55
2022/07/19 04:34:47;;;;;;;5.40;1.67;;;24.80;54.00;;;;;;4969713;28;20053;-54
2022/07/19 04:37:13;;;;;;;9.70;2.35;;;24.80;53.90;;;;;;4969357;28;20086;-55
2022/07/19 04:39:40;;;;;;;5.90;2.40;;;24.80;54.00;;;;;;4969081;28;20055;-53
2022/07/19 04:42:07;;;;;;;10.25;2.85;;;24.80;54.10;;;;;;4970327;28;20046;-54
2022/07/19 04:44:34;;;;;;;10.15;2.20;;;24.80;54.10;;;;;;4969468;28;20418;-49
2022/07/19 04:47:01;;;;;;;7.50;1.88;;;24.80;54.20;;;;;;4970329;28;20046;-54
2022/07/19 04:49:28;;;;;;;15.73;2.38;;;24.90;54.30;;;;;;4970088;28;20050;-50
2022/07/19 04:51:55;;;;;;;5.70;1.95;;;24.90;54.20;;;;;;4970154;28;20078;-55
2022/07/19 04:54:22;;;;;;;19.20;2.28;;;24.90;54.30;;;;;;4969440;28;20046;-55
2022/07/19 04:56:48;;;;;;;16.35;2.83;;;24.90;54.30;;;;;;4969957;28;20047;-54
2022/07/19 04:59:15;;;;;;;12.32;3.65;;;24.90;54.40;;;;;;4969850;28;20137;-53
2022/07/19 05:01:42;;;;;;;13.52;2.55;;;24.90;54.50;;;;;;4969651;28;20078;-55
2022/07/19 05:04:17;;;;;;;10.85;3.30;;;25.00;54.40;;;;;;4957297;28;20109;-56
2022/07/19 05:06:44;;;;;;;9.77;2.90;;;25.00;54.60;;;;;;4968335;28;20738;-54
2022/07/19 05:09:11;;;;;;;5.07;2.55;;;25.00;54.70;;;;;;4969790;28;20062;-58
2022/07/19 05:11:43;;;;;;;16.10;3.78;;;25.00;54.80;;;;;;4969567;28;20082;-55
2022/07/19 05:14:10;;;;;;;12.70;3.03;;;25.00;54.60;;;;;;4965543;28;20327;-55
2022/07/19 05:16:39;;;;;;;10.23;2.15;;;25.00;54.60;;;;;;4969024;28;20039;-50
2022/07/19 05:19:06;;;;;;;6.80;2.92;;;25.10;54.60;;;;;;4969711;28;20057;-53
2022/07/19 05:21:33;;;;;;;18.00;2.47;;;25.10;54.90;;;;;;4969659;28;20074;-54
2022/07/19 05:24:00;;;;;;;10.77;3.95;;;25.20;55.00;;;;;;4968835;28;20061;-55
2022/07/19 05:26:27;;;;;;;7.78;2.67;;;25.20;54.90;;;;;;4969544;28;20050;-56
2022/07/19 05:28:54;;;;;;;7.07;2.13;;;25.30;54.90;;;;;;4969359;28;20170;-56
2022/07/19 05:31:21;;;;;;;12.55;2.70;;;25.40;54.40;;;;;;4969180;28;20051;-56
2022/07/19 05:33:47;;;;;;;10.93;3.25;;;25.40;54.50;;;;;;4968363;28;20578;-54
2022/07/19 05:36:14;;;;;;;13.50;3.13;;;25.50;54.60;;;;;;4969366;28;20707;-54
2022/07/19 05:38:41;;;;;;;5.13;2.42;;;25.50;54.20;;;;;;4969294;28;20113;-53
2022/07/19 05:41:09;;;;;;;6.97;1.55;;;25.70;53.50;;;;;;4969222;28;20051;-53
2022/07/19 05:43:37;;;;;;;5.75;1.67;;;25.80;52.80;;;;;;4968616;28;20097;-53
2022/07/19 05:46:04;;;;;;;21.00;2.55;;;25.90;52.50;;;;;;4969219;28;20502;-53
2022/07/19 05:48:31;;;;;;;13.55;2.78;;;26.10;52.30;;;;;;4969144;28;20105;-54
2022/07/19 05:50:58;;;;;;;6.60;2.13;;;26.20;52.40;;;;;;4969200;28;20502;-56
2022/07/19 05:53:25;;;;;;;4.95;1.70;;;26.30;52.10;;;;;;4967474;28;20050;-53
2022/07/19 05:55:52;;;;;;;8.35;3.05;;;26.30;51.80;;;;;;4968606;28;20039;-52
2022/07/19 05:58:19;;;;;;;11.68;2.25;;;26.40;51.70;;;;;;4968676;28;20059;-54
2022/07/19 06:03:32;;;;;;;2.97;1.50;;;26.60;51.20;;;;;;4968031;28;20138;-55
2022/07/19 06:05:58;;;;;;;8.65;2.05;;;26.70;50.90;;;;;;4968531;28;20046;-53
2022/07/19 06:08:25;;;;;;;12.23;2.35;;;26.80;50.60;;;;;;4968788;28;20101;-53
2022/07/19 06:10:52;;;;;;;9.93;1.90;;;26.90;50.40;;;;;;4968462;28;20047;-53
2022/07/19 06:13:19;;;;;;;3.65;1.92;;;27.00;50.40;;;;;;4967579;28;20066;-54
2022/07/19 06:15:46;;;;;;;9.18;3.03;;;27.10;50.20;;;;;;4968060;28;20047;-54
2022/07/19 06:18:13;;;;;;;9.13;1.70;;;27.20;50.30;;;;;;4968988;28;20046;-54
2022/07/19 06:20:41;;;;;;;7.47;1.80;;;27.20;50.10;;;;;;4968258;28;20053;-52
2022/07/19 06:23:08;;;;;;;7.65;1.65;;;27.30;50.00;;;;;;4967480;28;20046;-54
2022/07/19 06:25:34;;;;;;;11.82;2.10;;;27.40;50.00;;;;;;4967929;28;20047;-53
2022/07/19 06:28:01;;;;;;;8.07;1.98;;;27.40;49.80;;;;;;4971383;28;20047;-53
2022/07/19 06:30:28;;;;;;;8.80;1.60;;;27.50;49.70;;;;;;4971293;28;20138;-55
2022/07/19 06:32:55;;;;;;;15.02;2.03;;;27.60;49.80;;;;;;4972710;28;20055;-54
2022/07/19 06:35:22;;;;;;;8.43;1.52;;;27.60;49.50;;;;;;4971966;28;20067;-54
2022/07/19 06:37:49;;;;;;;4.75;2.10;;;27.70;49.40;;;;;;4972269;28;20193;-55
2022/07/19 06:40:16;;;;;;;5.80;1.95;;;27.70;49.60;;;;;;4972501;28;20122;-52
2022/07/19 06:42:43;;;;;;;10.50;1.80;;;27.80;49.30;;;;;;4965940;28;20070;-54
2022/07/19 06:45:10;;;;;;;12.25;1.58;;;27.90;49.00;;;;;;4963732;28;20082;-54
2022/07/19 06:47:37;;;;;;;5.93;2.33;;;28.00;49.10;;;;;;4967433;28;20058;-53
2022/07/19 06:50:04;;;;;;;4.82;2.08;;;28.00;49.00;;;;;;4919200;28;20044;-52
2022/07/19 06:52:51;;;;;;;13.88;2.13;;;28.10;49.00;;;;;;4915373;28;20044;-53
2022/07/19 06:55:18;;;;;;;7.63;2.20;;;28.20;49.00;;;;;;4927917;29;20056;-52
2022/07/19 06:57:46;;;;;;;7.47;1.45;;;28.20;48.70;;;;;;4914565;28;20147;-55
2022/07/19 07:00:13;;;;;;;5.50;1.40;;;28.20;48.40;;;;;;4887523;28;20095;-54
2022/07/19 07:02:40;;;;;;;9.73;1.40;;;28.40;48.40;;;;;;4902119;28;20079;-54
2022/07/19 07:05:09;;;;;;;8.32;1.48;;;28.50;47.80;;;;;;4895536;28;20071;-55
2022/07/19 07:07:36;;;;;;;5.90;1.70;;;28.50;47.50;;;;;;4933157;29;20514;-54
2022/07/19 07:10:04;;;;;;;8.18;1.48;;;28.60;47.50;;;;;;4933430;29;20102;-56
2022/07/19 07:12:36;;;;;;;6.78;1.60;;;28.70;47.30;;;;;;4930749;29;20558;-53
2022/07/19 07:15:04;;;;;;;6.85;1.67;;;28.80;47.30;;;;;;4900753;28;20289;-52
2022/07/19 07:17:31;;;;;;;8.38;2.13;;;28.90;47.30;;;;;;4902200;28;20091;-54
2022/07/19 07:19:58;;;;;;;8.07;1.77;;;28.90;47.20;;;;;;4932653;29;20102;-56
2022/07/19 07:22:25;;;;;;;15.98;2.03;;;29.00;46.70;;;;;;4933222;29;20048;-53
2022/07/19 07:24:52;;;;;;;9.88;1.85;;;29.10;46.80;;;;;;4932979;29;20497;-54
2022/07/19 07:27:19;;;;;;;3.92;1.38;;;29.20;46.30;;;;;;4931683;29;20044;-56
2022/07/19 07:29:46;;;;;;;7.25;1.75;;;29.30;46.30;;;;;;4932886;29;20055;-55
2022/07/19 07:32:13;;;;;;;10.85;1.77;;;29.30;46.30;;;;;;4932607;29;20228;-56
2022/07/19 07:34:40;;;;;;;6.15;1.70;;;29.40;46.40;;;;;;4932157;29;20139;-55
2022/07/19 07:37:07;;;;;;;7.90;2.33;;;29.40;46.20;;;;;;4929879;29;20179;-54
2022/07/19 07:39:34;;;;;;;7.18;1.95;;;29.50;46.00;;;;;;4930418;29;20051;-53
2022/07/19 07:42:00;;;;;;;6.60;2.28;;;29.50;45.90;;;;;;4932923;29;20044;-56
2022/07/19 07:44:39;;;;;;;13.80;2.03;;;29.60;45.80;;;;;;4916290;28;20110;-55
2022/07/19 07:47:10;;;;;;;10.35;1.58;;;29.70;45.40;;;;;;4932934;29;20055;-55
2022/07/19 07:49:37;;;;;;;4.28;2.53;;;29.80;45.30;;;;;;4932820;29;20051;-56
2022/07/19 07:52:05;;;;;;;7.35;1.85;;;29.90;45.30;;;;;;4932962;29;20130;-59
2022/07/19 07:54:33;;;;;;;8.15;2.47;;;29.90;45.10;;;;;;4932229;29;20048;-50
2022/07/19 07:57:02;;;;;;;17.90;2.53;;;30.00;45.30;;;;;;4933093;29;20048;-53
2022/07/19 07:59:29;;;;;;;11.77;2.30;;;30.00;45.00;;;;;;4932432;29;20052;-50
2022/07/19 08:01:56;;;;;;;9.00;1.83;;;30.10;45.10;;;;;;4932938;29;20055;-53
2022/07/19 08:04:26;;;;;;;8.68;2.42;;;30.20;45.20;;;;;;4932079;29;20067;-51
2022/07/19 08:06:53;;;;;;;19.50;3.03;;;30.20;44.90;;;;;;4931609;29;20048;-53
2022/07/19 08:09:19;;;;;;;6.40;2.03;;;30.30;45.00;;;;;;4931203;29;20051;-50
2022/07/19 08:11:46;;;;;;;12.48;2.70;;;30.30;44.80;;;;;;4931344;29;20095;-52
2022/07/19 08:14:13;;;;;;;9.80;2.60;;;30.40;44.90;;;;;;4931730;29;20389;-51
2022/07/19 08:16:40;;;;;;;7.15;2.08;;;30.40;44.80;;;;;;4932054;29;20052;-54
2022/07/19 08:19:07;;;;;;;7.55;2.10;;;30.50;45.00;;;;;;4932417;29;20114;-55
2022/07/19 08:21:34;;;;;;;10.20;2.58;;;30.60;44.90;;;;;;4931658;29;20499;-55
2022/07/19 08:24:01;;;;;;;14.13;3.05;;;30.70;44.90;;;;;;4931025;29;20107;-56
2022/07/19 08:26:34;;;;;;;;;;;30.80;44.70;;;;;;4932728;29;20543;-54
2022/07/19 08:29:01;;;;;;;9.35;2.85;;;30.90;44.20;;;;;;4932193;29;19954;-55
2022/07/19 08:31:28;;;;;;;15.90;4.05;;;31.00;44.90;;;;;;4931970;29;20557;-54
2022/07/19 08:33:55;;;;;;;4.32;2.05;;;31.10;44.60;;;;;;4931472;29;20052;-56
2022/07/19 08:36:22;;;;;;;5.35;2.50;;;31.10;44.50;;;;;;4932000;29;20047;-55
2022/07/19 08:38:48;;;;;;;6.18;2.50;;;31.10;44.50;;;;;;4931241;29;20087;-54
2022/07/19 08:41:16;;;;;;;7.18;2.40;;;31.10;44.70;;;;;;4588833;28;10000680;-54
2022/07/19 08:43:43;;;;;;;8.48;2.47;;;31.10;44.60;;;;;;4928859;29;20047;-55
2022/07/19 08:46:10;;;;;;;9.02;2.65;;;31.20;44.50;;;;;;4928927;29;20081;-56
2022/07/19 08:48:39;;;;;;;7.53;2.30;;;31.30;44.30;;;;;;4927692;29;20132;-54
2022/07/19 08:51:13;;;;;;;5.43;1.90;;;31.30;44.50;;;;;;4929052;29;20040;-54
2022/07/19 08:53:40;;;;;;;4.13;1.80;;;31.40;44.80;;;;;;4927475;29;20066;-54
2022/07/19 08:57:57;;;;;;;5.78;2.50;;;31.40;44.80;;;;;;4943192;29;20069;-55
2022/07/19 08:58:54;;;;;;;9.20;2.10;;;31.50;44.70;;;;;;4917330;29;20051;-56
2022/07/19 09:01:22;;;;;;;7.45;2.58;;;31.60;44.90;;;;;;4927444;29;20035;-56
2022/07/19 09:04:13;;;;;;;8.35;2.47;;;31.60;44.70;;;;;;4927344;29;20418;-55
2022/07/19 09:06:52;;;;;;;6.30;2.30;;;31.70;44.40;;;;;;4927408;29;20124;-55
2022/07/19 09:09:30;;;;;;;11.43;2.60;;;31.80;44.40;;;;;;4918400;29;20110;-54
2022/07/19 09:11:58;;;;;;;11.30;2.40;;;31.90;44.80;;;;;;4926803;29;20044;-56
2022/07/19 09:14:29;;;;;;;9.02;2.92;;;31.90;44.80;;;;;;4928047;29;20055;-56
2022/07/19 09:16:56;;;;;;;7.30;2.55;;;32.00;44.70;;;;;;4925986;29;20044;-56
2022/07/19 09:19:25;;;;;;;13.85;2.20;;;32.00;45.00;;;;;;4921086;29;20048;-55
2022/07/19 09:21:55;;;;;;;6.75;2.25;;;32.10;45.00;;;;;;4926346;29;20047;-54
2022/07/19 09:24:22;;;;;;;7.25;2.78;;;32.10;45.10;;;;;;4923885;29;20055;-52
2022/07/19 09:26:55;;;;;;;16.50;2.92;;;32.20;44.80;;;;;;4926348;29;20518;-55
2022/07/19 09:29:22;;;;;;;10.90;2.65;;;32.30;45.00;;;;;;4925125;29;20087;-60
2022/07/19 09:32:12;;;;;;;9.35;2.10;;;32.40;45.00;;;;;;4927579;29;20503;-54
2022/07/19 09:34:41;;;;;;;7.10;2.50;;;32.50;44.70;;;;;;4924094;29;20119;-55
2022/07/19 09:37:08;;;;;;;6.70;2.50;;;32.60;45.10;;;;;;4928412;29;20104;-54
2022/07/19 09:39:35;;;;;;;12.65;3.47;;;32.60;45.20;;;;;;4926483;29;20131;-54
2022/07/19 09:42:03;;;;;;;13.13;2.80;;;32.70;45.00;;;;;;4927038;29;20089;-55
2022/07/19 09:44:29;;;;;;;10.40;2.70;;;32.80;45.00;;;;;;4927960;29;20044;-55
2022/07/19 09:46:56;;;;;;;7.32;2.63;;;32.90;45.10;;;;;;4927665;29;20460;-53
2022/07/19 09:49:23;;;;;;;9.98;2.65;;;33.00;45.10;;;;;;4927881;29;20055;-55
2022/07/19 09:51:52;;;;;;;6.75;2.60;;;33.10;45.00;;;;;;4927155;29;20079;-55
2022/07/19 09:54:21;;;;;;;8.13;3.53;;;33.20;45.10;;;;;;4927948;29;20079;-52
2022/07/19 09:56:49;;;;;;;14.10;2.97;;;33.30;44.60;;;;;;4927587;29;20047;-52
2022/07/19 09:59:17;;;;;;;9.85;3.33;;;33.40;44.40;;;;;;4930944;29;20051;-56
2022/07/19 10:01:44;;;;;;;11.85;3.00;;;33.50;44.20;;;;;;4926565;29;20048;-57
2022/07/19 10:04:12;;;;;;;8.50;2.58;;;33.60;44.10;;;;;;4926208;29;20047;-56
2022/07/19 10:06:40;;;;;;;13.13;2.88;;;33.80;43.60;;;;;;4923878;29;20091;-56
2022/07/19 10:09:09;;;;;;;10.73;2.90;;;33.90;43.50;;;;;;4927806;29;20531;-56
2022/07/19 10:11:36;;;;;;;9.90;2.70;;;34.10;43.40;;;;;;4923436;29;20056;-56
2022/07/19 10:14:03;;;;;;;6.32;2.60;;;34.50;43.20;;;;;;4923251;29;20056;-56
2022/07/19 10:16:48;;;;;;;8.82;2.38;;;34.90;42.80;;;;;;4921630;29;20043;-55
2022/07/19 10:19:41;;;;;;;10.75;3.05;;;35.30;41.50;;;;;;4924056;29;20061;-53
2022/07/19 10:22:18;;;;;;;17.80;2.95;;;35.60;40.90;;;;;;4923126;29;20050;-56
2022/07/19 10:25:04;;;;;;;8.50;2.90;;;36.00;40.70;;;;;;4923001;29;20310;-54
2022/07/19 10:27:35;;;;;;;8.73;3.55;;;36.20;41.20;;;;;;4923288;29;20474;-56
2022/07/19 10:30:10;;;;;;;8.82;3.00;;;36.30;40.80;;;;;;4927078;29;20127;-55
2022/07/19 10:32:42;;;;;;;9.93;3.40;;;36.60;39.60;;;;;;4927168;29;20099;-54
2022/07/19 10:35:25;;;;;;;11.52;3.03;;;36.80;40.30;;;;;;4926953;29;20044;-56
2022/07/19 10:38:00;;;;;;;12.23;3.72;;;37.00;38.50;;;;;;4917349;29;20063;-54
2022/07/19 10:40:43;;;;;;;9.13;3.50;;;37.10;37.90;;;;;;4920619;29;20374;-52
2022/07/19 10:43:14;;;;;;;10.32;3.05;;;37.10;37.20;;;;;;4927346;29;20056;-54
2022/07/19 10:45:51;;;;;;;15.60;3.10;;;37.30;39.10;;;;;;4917370;29;20099;-57
2022/07/19 10:48:17;;;;;;;10.57;3.08;;;37.60;39.10;;;;;;4917187;29;20052;-56
2022/07/19 10:50:52;;;;;;;6.88;2.67;;;37.70;39.00;;;;;;4927536;28;20056;-55
2022/07/19 10:53:59;;;;;;;8.18;2.58;;;37.90;37.30;;;;;;4928214;29;20119;-55
2022/07/19 10:56:29;;;;;;;8.35;2.72;;;37.80;36.20;;;;;;4905834;29;20651;-54
2022/07/19 10:59:09;;;;;;;10.02;3.50;;;37.50;37.60;;;;;;4922108;29;20044;-56
2022/07/19 11:01:36;;;;;;;8.38;2.70;;;37.30;36.30;;;;;;4911118;29;20048;-58
2022/07/19 11:04:25;;;;;;;9.23;2.78;;;37.00;37.40;;;;;;4927640;29;20123;-57
2022/07/19 11:07:16;;;;;;;11.18;3.67;;;36.80;36.60;;;;;;4928824;29;20055;-56
2022/07/19 11:09:48;;;;;;;9.57;2.83;;;36.70;36.30;;;;;;4918969;29;20400;-55
2022/07/19 11:12:34;;;;;;;8.63;2.33;;;36.60;37.10;;;;;;4927675;29;20083;-56
2022/07/19 11:15:04;;;;;;;8.90;3.03;;;36.60;36.60;;;;;;4921209;29;20063;-56
2022/07/19 11:18:01;;;;;;;7.65;2.72;;;36.60;37.30;;;;;;4929483;29;20062;-55
2022/07/19 11:20:30;;;;;;;9.32;3.05;;;36.60;36.50;;;;;;4930590;29;20562;-55
2022/07/19 11:22:57;;;;;;;12.32;2.88;;;36.70;37.40;;;;;;4930915;29;20055;-57
2022/07/19 11:25:28;;;;;;;20.20;4.10;;;36.70;37.10;;;;;;4931161;29;20062;-57
2022/07/19 11:27:55;;;;;;;12.15;3.85;;;36.60;36.80;;;;;;4931144;29;20055;-55
2022/07/19 11:30:23;;;;;;;11.27;3.38;;;36.60;37.10;;;;;;4930303;29;20372;-58
2022/07/19 11:32:52;;;;;;;9.15;3.45;;;36.70;37.10;;;;;;4930713;29;20574;-56
2022/07/19 11:35:18;;;;;;;6.45;2.90;;;36.60;37.00;;;;;;4930610;29;20463;-53
2022/07/19 11:37:45;;;;;;;6.43;2.65;;;36.60;36.90;;;;;;4930944;29;20047;-56
2022/07/19 11:40:13;;;;;;;11.20;3.53;;;36.40;36.50;;;;;;4930235;29;20079;-54
2022/07/19 11:42:46;;;;;;;14.18;3.83;;;36.50;36.10;;;;;;4930557;29;20107;-55
2022/07/19 11:45:41;;;;;;;16.13;4.60;;;36.60;36.20;;;;;;4928927;29;20392;-53
2022/07/19 11:48:08;;;;;;;9.02;3.03;;;36.60;36.00;;;;;;4929034;29;20075;-55
2022/07/19 11:50:35;;;;;;;7.38;2.50;;;36.70;36.70;;;;;;4928908;29;20047;-56
2022/07/19 11:53:02;;;;;;;6.18;2.88;;;36.80;36.50;;;;;;4928110;29;20079;-57
2022/07/19 11:55:38;;;;;;;14.00;3.15;;;36.80;36.30;;;;;;4925115;29;20055;-56
2022/07/19 11:58:10;;;;;;;10.38;2.90;;;36.70;35.40;;;;;;4924929;29;20058;-59
2022/07/19 12:00:43;;;;;;;;;;;36.80;36.20;;;;;;4922007;29;20062;-54
2022/07/19 12:03:15;;;;;;;10.98;3.38;;;36.80;35.90;;;;;;4927234;29;19926;-57
2022/07/19 12:06:06;;;;;;;15.05;3.83;;;36.90;36.00;;;;;;4942182;28;20051;-56
2022/07/19 12:08:40;;;;;;;10.27;3.15;;;37.00;35.80;;;;;;4920591;29;20083;-57
2022/07/19 12:11:18;;;;;;;8.48;3.05;;;37.10;36.50;;;;;;4928334;29;20051;-55
2022/07/19 12:13:45;;;;;;;5.72;2.67;;;37.10;36.00;;;;;;4921897;29;20405;-56
2022/07/19 12:16:15;;;;;;;6.80;2.75;;;37.10;36.00;;;;;;4929890;29;20052;-55
2022/07/19 12:18:46;;;;;;;11.15;2.88;;;37.10;36.00;;;;;;4930307;29;20051;-56
2022/07/19 12:21:19;;;;;;;12.75;3.92;;;37.00;35.60;;;;;;4932384;29;20484;-55
2022/07/19 12:24:10;;;;;;;20.52;6.22;;;37.00;35.30;;;;;;4932528;29;20055;-56
2022/07/19 12:26:38;;;;;;;12.10;3.03;;;37.10;34.30;;;;;;4932203;29;20074;-54
2022/07/19 12:29:25;;;;;;;15.23;3.38;;;37.20;35.50;;;;;;4924636;29;20142;-55
2022/07/19 12:31:55;;;;;;;9.65;3.08;;;37.30;35.40;;;;;;4932258;29;20054;-57
2022/07/19 12:34:21;;;;;;;16.75;3.30;;;37.20;35.20;;;;;;4932376;29;20075;-53
2022/07/19 12:36:48;;;;;;;13.15;3.47;;;37.20;35.20;;;;;;4932124;29;20043;-57
2022/07/19 12:39:28;;;;;;;6.30;2.50;;;37.20;35.40;;;;;;4931815;29;20443;-55
2022/07/19 12:42:02;;;;;;;12.93;2.97;;;37.30;34.40;;;;;;4931765;29;20071;-57
2022/07/19 12:44:29;;;;;;;11.70;3.25;;;37.30;34.80;;;;;;4932051;29;20039;-56
2022/07/19 12:46:56;;;;;;;14.40;3.75;;;37.30;34.80;;;;;;4930540;29;20055;-58
2022/07/19 12:49:47;;;;;;;8.18;2.97;;;37.30;34.80;;;;;;4931180;29;20056;-56
2022/07/19 12:52:14;;;;;;;6.10;2.88;;;37.30;34.90;;;;;;4932036;29;20051;-56
2022/07/19 12:54:41;;;;;;;15.65;3.20;;;37.30;35.50;;;;;;4931444;29;20090;-55
2022/07/19 12:57:07;;;;;;;12.38;2.92;;;37.40;35.30;;;;;;4931625;29;20051;-56
2022/07/19 12:59:41;;;;;;;9.45;3.15;;;37.40;34.90;;;;;;4931058;29;20500;-55